Time;durP1;ratioP1;P1;durP2;ratioP2;P2;SDS_P1;SDS_P2;PMS_P1;PMS_P2;Temp;Humidity;BMP_temperature;BMP_pressure;BME280_temperature;BME280_humidity;BME280_pressure;Samples;Min_cycle;Max_cycle;Signal;HPM_P1;HPM_P2
2021/01/15 00:02:22;;;;;;;18.17;11.40;;;-0.30;90.20;;;;;;4413771;32;20239;-63
2021/01/15 00:04:49;;;;;;;20.07;11.20;;;-0.30;90.10;;;;;;4414522;32;20179;-65
2021/01/15 00:07:18;;;;;;;17.83;10.90;;;-0.30;90.00;;;;;;4419325;32;20256;-63
2021/01/15 00:09:55;;;;;;;17.77;9.87;;;-0.30;89.80;;;;;;4410701;32;20175;-65
2021/01/15 00:12:26;;;;;;;18.23;12.23;;;-0.30;89.50;;;;;;4418190;32;20201;-64
2021/01/15 00:15:03;;;;;;;16.80;11.33;;;-0.30;89.30;;;;;;4405134;32;20586;-64
2021/01/15 00:17:40;;;;;;;16.43;10.67;;;-0.30;89.20;;;;;;4404291;32;20242;-64
2021/01/15 00:20:19;;;;;;;16.33;11.00;;;-0.30;89.10;;;;;;4404688;32;20216;-64
2021/01/15 00:22:50;;;;;;;13.23;10.20;;;-0.30;88.90;;;;;;4405096;32;20175;-64
2021/01/15 00:25:19;;;;;;;15.90;10.10;;;-0.30;88.80;;;;;;4407480;32;20163;-65
2021/01/15 00:27:45;;;;;;;14.93;10.10;;;-0.30;88.40;;;;;;4412860;32;20171;-65
2021/01/15 00:30:17;;;;;;;15.20;9.70;;;-0.30;88.40;;;;;;4417658;32;20265;-63
2021/01/15 00:32:45;;;;;;;17.93;11.00;;;-0.30;88.40;;;;;;4411477;32;20215;-65
2021/01/15 00:35:13;;;;;;;15.60;10.00;;;-0.30;88.10;;;;;;4405213;32;20156;-64
2021/01/15 00:37:43;;;;;;;17.17;10.67;;;-0.30;87.80;;;;;;4409076;32;20186;-63
2021/01/15 00:40:10;;;;;;;14.90;10.43;;;-0.30;87.50;;;;;;4417085;32;20158;-64
2021/01/15 00:42:40;;;;;;;16.50;8.97;;;-0.10;86.90;;;;;;4414177;32;20214;-65
2021/01/15 00:45:08;;;;;;;13.93;9.40;;;0.00;86.00;;;;;;4407479;32;20178;-64
2021/01/15 00:47:35;;;;;;;14.37;9.40;;;0.10;85.40;;;;;;4407980;32;20163;-64
2021/01/15 00:50:03;;;;;;;14.00;9.77;;;0.10;85.10;;;;;;4417706;32;20179;-65
2021/01/15 00:52:35;;;;;;;15.47;10.10;;;0.20;84.90;;;;;;4418008;32;20152;-64
2021/01/15 00:55:06;;;;;;;14.50;9.60;;;0.20;84.20;;;;;;4415506;32;20155;-64
2021/01/15 00:57:46;;;;;;;15.90;10.33;;;0.30;84.20;;;;;;4410071;32;20626;-64
2021/01/15 01:00:17;;;;;;;12.57;9.27;;;0.30;83.40;;;;;;4419147;32;20146;-64
2021/01/15 01:02:43;;;;;;;12.90;8.37;;;0.30;83.40;;;;;;4414951;32;20311;-64
2021/01/15 01:05:26;;;;;;;12.77;9.17;;;0.40;83.30;;;;;;4403938;32;20498;-64
2021/01/15 01:07:54;;;;;;;12.73;7.90;;;0.30;83.20;;;;;;4408125;32;20602;-62
2021/01/15 01:10:23;;;;;;;15.47;9.07;;;0.30;83.20;;;;;;4403776;32;20524;-65
2021/01/15 01:12:52;;;;;;;15.90;9.17;;;0.20;83.50;;;;;;4406255;32;20212;-63
2021/01/15 01:15:18;;;;;;;13.03;8.60;;;0.20;83.60;;;;;;4406436;32;20171;-64
2021/01/15 01:17:44;;;;;;;14.00;9.60;;;0.20;83.60;;;;;;4410941;32;20248;-64
2021/01/15 01:20:16;;;;;;;16.27;10.00;;;0.10;84.00;;;;;;4418235;32;20151;-64
2021/01/15 01:22:49;;;;;;;12.10;9.07;;;0.10;84.30;;;;;;4415665;32;20163;-65
2021/01/15 01:25:19;;;;;;;15.30;9.90;;;0.30;84.20;;;;;;4423350;32;20148;-66
2021/01/15 01:27:51;;;;;;;13.70;9.87;;;0.30;83.90;;;;;;4420051;32;20203;-65
2021/01/15 01:30:20;;;;;;;17.37;10.20;;;0.40;83.80;;;;;;4416939;32;20485;-65
2021/01/15 01:32:52;;;;;;;17.53;10.43;;;0.50;83.20;;;;;;4411013;32;20572;-62
2021/01/15 01:35:24;;;;;;;14.27;9.33;;;0.60;82.80;;;;;;4414301;32;20144;-63
2021/01/15 01:37:56;;;;;;;14.67;9.90;;;0.70;82.80;;;;;;4406117;32;20211;-64
2021/01/15 01:40:23;;;;;;;13.63;9.40;;;0.80;82.20;;;;;;4407648;32;20498;-63
2021/01/15 01:42:49;;;;;;;13.40;9.40;;;0.80;82.20;;;;;;4407558;32;20156;-62
2021/01/15 01:45:18;;;;;;;13.23;9.10;;;0.90;81.80;;;;;;4406317;32;20204;-63
2021/01/15 01:47:45;;;;;;;13.30;9.50;;;0.90;81.40;;;;;;4408117;32;20942;-64
2021/01/15 01:50:12;;;;;;;17.67;10.17;;;0.90;81.30;;;;;;4413738;32;20210;-63
2021/01/15 01:52:45;;;;;;;16.93;9.60;;;1.00;81.70;;;;;;4418593;32;20175;-62
2021/01/15 01:55:14;;;;;;;16.43;11.07;;;0.90;81.80;;;;;;4409497;32;20174;-65
2021/01/15 01:57:48;;;;;;;14.80;9.70;;;1.00;82.50;;;;;;4407841;32;20215;-63
2021/01/15 02:00:18;;;;;;;13.57;9.07;;;1.00;81.80;;;;;;4407116;32;20206;-63
2021/01/15 02:02:48;;;;;;;14.83;9.87;;;1.00;81.30;;;;;;4407640;32;20175;-64
2021/01/15 02:05:15;;;;;;;14.67;9.83;;;1.10;81.30;;;;;;4409717;32;20241;-63
2021/01/15 02:07:41;;;;;;;15.13;9.37;;;1.10;81.40;;;;;;4412491;32;20212;-63
2021/01/15 02:10:13;;;;;;;18.77;10.73;;;1.10;81.60;;;;;;4421153;32;20179;-63
2021/01/15 02:12:50;;;;;;;14.23;9.47;;;1.10;82.00;;;;;;4409548;32;20159;-64
2021/01/15 02:15:27;;;;;;;13.30;8.77;;;1.10;81.70;;;;;;4410979;32;20206;-62
2021/01/15 02:18:00;;;;;;;13.77;9.50;;;1.20;81.00;;;;;;4409598;32;20203;-66
2021/01/15 02:21:10;;;;;;;13.57;10.33;;;1.20;81.60;;;;;;4408777;32;20155;-62
2021/01/15 02:23:42;;;;;;;16.97;10.13;;;1.20;81.00;;;;;;4351263;33;20220;-64
2021/01/15 02:26:48;;;;;;;12.83;9.53;;;1.20;81.50;;;;;;4351242;32;20569;-64
2021/01/15 02:29:27;;;;;;;13.30;9.27;;;1.20;81.00;;;;;;4314529;33;20555;-63
2021/01/15 02:32:29;;;;;;;14.67;9.63;;;1.30;80.30;;;;;;4323386;33;20168;-63
2021/01/15 02:35:18;;;;;;;12.40;9.43;;;1.30;80.60;;;;;;4328363;33;20155;-65
2021/01/15 02:38:15;;;;;;;19.27;10.17;;;1.30;80.30;;;;;;4327280;33;20233;-64
2021/01/15 02:40:57;;;;;;;13.93;10.27;;;1.40;80.20;;;;;;4329725;33;20158;-65
2021/01/15 02:43:31;;;;;;;13.47;9.67;;;1.20;80.50;;;;;;4327790;33;20224;-63
2021/01/15 02:45:59;;;;;;;15.50;9.93;;;1.30;81.00;;;;;;4328167;33;20305;-62
2021/01/15 02:48:35;;;;;;;14.97;10.43;;;1.30;81.10;;;;;;4326941;33;20173;-63
2021/01/15 02:51:02;;;;;;;13.13;9.57;;;1.30;80.40;;;;;;4328332;33;20221;-63
2021/01/15 02:53:29;;;;;;;12.73;9.87;;;1.30;80.30;;;;;;4328070;33;20801;-66
2021/01/15 02:55:55;;;;;;;12.40;9.47;;;1.30;80.50;;;;;;4328985;33;20245;-64
2021/01/15 02:58:21;;;;;;;12.37;9.50;;;1.40;80.20;;;;;;4330410;33;20594;-64
2021/01/15 03:00:47;;;;;;;12.57;9.20;;;1.40;80.40;;;;;;4356290;33;20625;-64
2021/01/15 03:03:23;;;;;;;13.60;9.50;;;1.40;80.10;;;;;;4351791;33;20224;-63
2021/01/15 03:06:00;;;;;;;11.93;9.13;;;1.40;80.20;;;;;;4377576;32;20166;-63
2021/01/15 03:08:27;;;;;;;12.17;8.57;;;1.50;79.20;;;;;;4410158;32;20579;-63
2021/01/15 03:11:01;;;;;;;13.23;9.30;;;1.50;79.50;;;;;;4405599;32;20668;-62
2021/01/15 03:13:30;;;;;;;14.10;9.50;;;1.40;79.80;;;;;;4414911;32;20167;-65
2021/01/15 03:16:09;;;;;;;12.47;9.13;;;1.50;79.70;;;;;;4421031;32;20203;-63
2021/01/15 03:18:37;;;;;;;14.77;9.47;;;1.50;79.10;;;;;;4405017;32;20209;-63
2021/01/15 03:21:10;;;;;;;11.77;8.43;;;1.50;79.10;;;;;;4413511;32;20156;-62
2021/01/15 03:23:39;;;;;;;15.57;9.80;;;1.50;79.00;;;;;;4414424;32;20693;-62
2021/01/15 03:26:11;;;;;;;12.30;9.23;;;1.50;78.80;;;;;;4420643;32;20198;-66
2021/01/15 03:28:37;;;;;;;12.60;8.87;;;1.60;78.50;;;;;;4418145;32;20159;-63
2021/01/15 03:31:06;;;;;;;12.83;9.03;;;1.50;79.10;;;;;;4407909;32;20282;-63
2021/01/15 03:33:33;;;;;;;12.80;9.63;;;1.50;79.20;;;;;;4412531;32;20159;-64
2021/01/15 03:36:02;;;;;;;12.27;8.50;;;1.60;79.00;;;;;;4409741;32;20219;-64
2021/01/15 03:38:29;;;;;;;13.70;8.97;;;1.60;78.60;;;;;;4415444;32;20448;-64
2021/01/15 03:41:04;;;;;;;11.27;8.33;;;1.60;78.30;;;;;;4405011;32;20163;-64
2021/01/15 03:43:31;;;;;;;11.87;8.60;;;1.60;78.40;;;;;;4413654;32;20189;-64
2021/01/15 03:46:17;;;;;;;14.20;10.07;;;1.60;78.60;;;;;;4411999;32;20236;-63
2021/01/15 03:48:44;;;;;;;16.63;9.13;;;1.60;78.40;;;;;;4415190;32;20238;-62
2021/01/15 03:51:17;;;;;;;11.40;8.43;;;1.50;78.80;;;;;;4405034;32;20194;-65
2021/01/15 03:53:47;;;;;;;12.23;8.77;;;1.50;79.00;;;;;;4407328;32;20225;-64
2021/01/15 03:56:17;;;;;;;9.13;7.33;;;1.60;78.90;;;;;;4414175;32;20211;-63
2021/01/15 03:58:48;;;;;;;11.43;7.97;;;1.70;79.00;;;;;;4410312;32;20182;-63
2021/01/15 04:01:17;;;;;;;11.03;8.80;;;1.60;79.00;;;;;;4404696;32;20151;-64
2021/01/15 04:03:43;;;;;;;12.93;9.03;;;1.70;78.90;;;;;;4405373;32;20638;-64
2021/01/15 04:06:15;;;;;;;14.20;8.70;;;1.70;78.90;;;;;;4407654;32;20215;-64
2021/01/15 04:08:45;;;;;;;13.60;9.23;;;1.70;78.70;;;;;;4417737;32;20427;-62
2021/01/15 04:11:11;;;;;;;13.33;8.70;;;1.80;78.70;;;;;;4405230;32;20160;-64
2021/01/15 04:13:44;;;;;;;11.13;7.73;;;1.70;78.40;;;;;;4414865;32;20178;-64
2021/01/15 04:16:15;;;;;;;13.83;8.63;;;1.80;78.60;;;;;;4404090;32;20610;-64
2021/01/15 04:18:43;;;;;;;14.77;9.00;;;1.70;79.00;;;;;;4404627;32;20239;-62
2021/01/15 04:21:21;;;;;;;13.90;9.10;;;1.70;79.20;;;;;;4408816;32;20673;-64
2021/01/15 04:23:52;;;;;;;12.47;8.73;;;1.60;79.10;;;;;;4408063;32;20218;-63
2021/01/15 04:26:20;;;;;;;10.37;8.03;;;1.60;79.30;;;;;;4415505;32;20211;-64
2021/01/15 04:28:56;;;;;;;12.13;8.97;;;1.70;79.50;;;;;;4416208;32;20171;-63
2021/01/15 04:31:25;;;;;;;12.20;8.27;;;1.70;79.50;;;;;;4411407;32;20155;-63
2021/01/15 04:33:55;;;;;;;13.27;9.00;;;1.70;79.40;;;;;;4411450;32;20208;-63
2021/01/15 04:36:27;;;;;;;12.80;9.03;;;1.70;79.10;;;;;;4417436;32;20156;-62
2021/01/15 04:38:54;;;;;;;12.70;8.47;;;1.70;79.40;;;;;;4417513;32;20175;-62
2021/01/15 04:41:42;;;;;;;13.10;8.90;;;1.70;79.30;;;;;;4409001;32;20249;-64
2021/01/15 04:44:09;;;;;;;13.80;8.07;;;1.70;79.10;;;;;;4415249;32;20507;-64
2021/01/15 04:46:47;;;;;;;12.40;8.53;;;1.70;78.90;;;;;;4407035;32;20164;-63
2021/01/15 04:49:25;;;;;;;10.33;7.70;;;1.80;79.00;;;;;;4415660;32;20234;-63
2021/01/15 04:51:57;;;;;;;13.90;8.73;;;1.80;78.80;;;;;;4408336;32;20264;-64
2021/01/15 04:58:01;;;;;;;15.93;8.83;;;1.70;78.70;;;;;;4415694;32;20217;-63
2021/01/15 05:00:30;;;;;;;13.23;8.97;;;1.70;79.30;;;;;;4409110;32;20156;-63
2021/01/15 05:02:56;;;;;;;13.70;9.50;;;1.70;79.40;;;;;;4411074;32;20220;-63
2021/01/15 05:05:25;;;;;;;14.23;8.97;;;1.70;79.90;;;;;;4413581;32;20156;-63
2021/01/15 05:08:10;;;;;;;13.40;8.97;;;1.80;80.80;;;;;;4418419;32;20231;-63
2021/01/15 05:10:38;;;;;;;14.53;9.80;;;1.80;79.70;;;;;;4417319;32;20440;-64
2021/01/15 05:13:13;;;;;;;11.80;8.33;;;1.80;79.40;;;;;;4418097;32;20213;-64
2021/01/15 05:15:43;;;;;;;13.73;8.53;;;1.80;79.60;;;;;;4407834;32;20210;-64
2021/01/15 05:18:12;;;;;;;14.53;9.80;;;1.80;79.50;;;;;;4406455;32;20179;-63
2021/01/15 05:20:39;;;;;;;14.23;8.97;;;1.70;79.50;;;;;;4406931;32;20252;-66
2021/01/15 05:23:14;;;;;;;12.17;8.70;;;1.70;79.70;;;;;;4413729;32;20229;-65
2021/01/15 05:25:43;;;;;;;13.07;8.73;;;1.80;80.00;;;;;;4419737;32;20178;-64
2021/01/15 05:28:11;;;;;;;12.93;8.40;;;1.70;80.00;;;;;;4417304;32;20182;-66
2021/01/15 05:30:40;;;;;;;15.20;9.40;;;1.80;79.90;;;;;;4421106;32;20228;-64
2021/01/15 05:33:13;;;;;;;14.13;9.43;;;1.80;79.70;;;;;;4417001;32;20182;-64
2021/01/15 05:35:42;;;;;;;14.80;9.37;;;1.80;79.90;;;;;;4420119;32;20222;-63
2021/01/15 05:38:10;;;;;;;12.47;8.97;;;1.80;79.60;;;;;;4408120;32;20178;-62
2021/01/15 05:40:42;;;;;;;15.70;8.53;;;1.90;79.60;;;;;;4406349;32;20168;-65
2021/01/15 05:43:25;;;;;;;13.40;9.40;;;1.90;79.60;;;;;;4412898;32;20230;-62
2021/01/15 05:46:14;;;;;;;13.50;9.50;;;1.90;79.40;;;;;;4420348;32;20155;-65
2021/01/15 05:48:44;;;;;;;13.77;8.90;;;2.00;79.50;;;;;;4416064;32;20186;-62
2021/01/15 05:51:24;;;;;;;12.60;9.13;;;1.90;79.20;;;;;;4413953;32;20211;-64
2021/01/15 05:53:50;;;;;;;13.00;9.03;;;1.90;79.70;;;;;;4406609;32;20270;-64
2021/01/15 05:56:19;;;;;;;14.27;9.73;;;1.80;80.10;;;;;;4412271;32;20189;-67
2021/01/15 05:59:14;;;;;;;13.93;10.20;;;1.90;79.90;;;;;;4417153;32;20164;-63
2021/01/15 06:01:49;;;;;;;13.47;10.17;;;1.90;79.70;;;;;;4420766;32;20147;-62
2021/01/15 06:04:33;;;;;;;12.40;9.23;;;2.00;79.40;;;;;;4422294;32;20326;-64
2021/01/15 06:07:20;;;;;;;12.07;8.47;;;2.00;79.30;;;;;;4414344;32;20208;-64
2021/01/15 06:09:49;;;;;;;13.97;10.33;;;2.00;79.40;;;;;;4410700;32;20186;-63
2021/01/15 06:12:18;;;;;;;16.27;10.57;;;2.00;79.30;;;;;;4406151;32;20172;-63
2021/01/15 06:14:52;;;;;;;14.47;10.67;;;2.00;79.20;;;;;;4409224;32;20160;-63
2021/01/15 06:17:20;;;;;;;13.43;9.33;;;2.00;79.50;;;;;;4405745;32;20241;-64
2021/01/15 06:19:53;;;;;;;15.53;9.43;;;1.90;79.70;;;;;;4405851;32;20564;-62
2021/01/15 06:22:31;;;;;;;13.40;9.63;;;2.00;78.90;;;;;;4407565;32;20160;-64
2021/01/15 06:25:09;;;;;;;17.23;11.10;;;2.00;79.10;;;;;;4414360;32;20227;-63
2021/01/15 06:27:37;;;;;;;16.53;11.47;;;1.90;79.80;;;;;;4415893;32;20221;-63
2021/01/15 06:30:07;;;;;;;15.83;9.83;;;2.00;79.50;;;;;;4414814;32;20551;-64
2021/01/15 06:32:36;;;;;;;14.73;9.93;;;2.00;79.60;;;;;;4412365;32;20196;-65
2021/01/15 06:35:04;;;;;;;16.00;10.43;;;2.00;79.70;;;;;;4409598;32;20233;-63
2021/01/15 06:37:31;;;;;;;17.93;11.50;;;2.00;79.40;;;;;;4408570;32;20289;-64
2021/01/15 06:40:12;;;;;;;18.10;11.93;;;2.00;78.80;;;;;;4411572;32;20172;-64
2021/01/15 06:42:52;;;;;;;16.00;10.67;;;2.10;78.80;;;;;;4412921;32;20195;-63
2021/01/15 06:45:19;;;;;;;16.27;11.07;;;2.10;78.00;;;;;;4409039;32;20173;-64
2021/01/15 06:47:58;;;;;;;15.23;9.50;;;2.10;77.30;;;;;;4409421;32;20238;-65
2021/01/15 06:50:29;;;;;;;16.33;11.13;;;2.10;77.40;;;;;;4409596;32;20254;-62
2021/01/15 06:53:14;;;;;;;16.03;11.03;;;2.10;77.50;;;;;;4405794;32;20225;-62
2021/01/15 06:55:49;;;;;;;17.23;10.93;;;2.10;77.90;;;;;;4408952;32;20151;-62
2021/01/15 07:01:29;;;;;;;15.03;9.97;;;2.10;78.70;;;;;;4406918;32;20171;-65
2021/01/15 07:04:30;;;;;;;15.90;9.80;;;2.10;77.20;;;;;;4406871;32;20745;-62
2021/01/15 07:07:10;;;;;;;15.33;9.70;;;2.10;76.00;;;;;;4405747;32;20208;-65
2021/01/15 07:09:37;;;;;;;17.30;10.03;;;2.20;76.40;;;;;;4405448;32;20222;-67
2021/01/15 07:12:08;;;;;;;16.30;10.70;;;2.20;76.30;;;;;;4413150;32;20178;-66
2021/01/15 07:14:57;;;;;;;13.93;9.93;;;2.20;76.70;;;;;;4408598;32;20178;-64
2021/01/15 07:17:33;;;;;;;18.40;9.70;;;2.20;75.40;;;;;;4406376;32;20163;-66
2021/01/15 07:20:11;;;;;;;18.07;10.40;;;2.30;75.50;;;;;;4414189;32;20177;-64
2021/01/15 07:22:43;;;;;;;14.50;9.63;;;2.20;75.90;;;;;;4411716;32;20217;-65
2021/01/15 07:25:11;;;;;;;16.70;11.90;;;2.30;75.70;;;;;;4411200;32;20155;-63
2021/01/15 07:27:49;;;;;;;17.30;10.87;;;2.30;75.60;;;;;;4411051;32;20250;-64
2021/01/15 07:30:27;;;;;;;14.67;10.17;;;2.30;75.60;;;;;;4400984;32;20222;-63
2021/01/15 07:36:00;;;;;;;18.23;10.60;;;2.30;75.90;;;;;;4400039;32;20183;-65
2021/01/15 07:38:30;;;;;;;13.40;9.20;;;2.30;76.30;;;;;;4405520;32;20163;-64
2021/01/15 07:41:02;;;;;;;14.23;9.87;;;2.30;76.30;;;;;;4406233;32;20155;-64
2021/01/15 07:43:30;;;;;;;16.23;9.83;;;2.30;75.90;;;;;;4404754;32;20241;-63
2021/01/15 07:46:02;;;;;;;16.03;9.67;;;2.30;76.10;;;;;;4405665;32;20183;-64
2021/01/15 07:48:30;;;;;;;14.97;10.90;;;2.30;76.30;;;;;;4404238;32;20181;-65
2021/01/15 07:50:56;;;;;;;15.57;10.73;;;2.30;76.20;;;;;;4405905;32;20209;-64
2021/01/15 07:53:26;;;;;;;15.87;10.63;;;2.40;76.40;;;;;;4404481;32;20216;-62
2021/01/15 07:55:55;;;;;;;14.20;9.87;;;2.30;76.40;;;;;;4407599;32;20174;-63
2021/01/15 07:58:23;;;;;;;16.73;10.17;;;2.30;76.80;;;;;;4404701;32;20261;-64
2021/01/15 08:01:06;;;;;;;15.20;9.73;;;2.30;77.10;;;;;;4407401;32;20238;-63
2021/01/15 08:03:43;;;;;;;16.73;10.87;;;2.40;78.50;;;;;;4405545;32;20152;-65
2021/01/15 08:06:11;;;;;;;13.83;9.93;;;2.40;77.80;;;;;;4409266;32;20163;-63
2021/01/15 08:09:00;;;;;;;15.50;11.20;;;2.40;78.50;;;;;;4407609;32;20202;-64
2021/01/15 08:11:28;;;;;;;16.97;11.03;;;2.50;78.50;;;;;;4406523;32;20166;-64
2021/01/15 08:14:11;;;;;;;16.23;11.27;;;2.50;78.90;;;;;;4407018;32;20150;-63
2021/01/15 08:16:41;;;;;;;16.33;10.83;;;2.50;78.90;;;;;;4405119;32;20156;-63
2021/01/15 08:19:11;;;;;;;15.27;11.23;;;2.50;79.70;;;;;;4408679;32;20274;-63
2021/01/15 08:21:40;;;;;;;16.20;11.80;;;2.50;80.10;;;;;;4404259;32;20217;-64
2021/01/15 08:24:13;;;;;;;14.97;10.60;;;2.50;79.70;;;;;;4407595;32;20236;-63
2021/01/15 08:26:45;;;;;;;15.17;11.10;;;2.60;80.70;;;;;;4405635;32;20548;-63
2021/01/15 08:29:12;;;;;;;17.53;11.87;;;2.60;81.00;;;;;;4405289;32;20155;-64
2021/01/15 08:31:42;;;;;;;17.17;12.47;;;2.50;77.00;;;;;;4407769;32;20167;-62
2021/01/15 08:34:20;;;;;;;16.77;11.37;;;2.30;76.80;;;;;;4409470;32;20166;-64
2021/01/15 08:37:00;;;;;;;16.57;11.07;;;2.40;77.90;;;;;;4408109;32;20321;-64
2021/01/15 08:39:42;;;;;;;16.87;10.87;;;2.40;77.60;;;;;;4405301;32;20224;-63
2021/01/15 08:42:09;;;;;;;17.97;11.50;;;2.40;77.30;;;;;;4406214;32;20252;-63
2021/01/15 08:44:37;;;;;;;17.73;11.13;;;2.30;76.60;;;;;;4406134;32;20221;-63
2021/01/15 08:47:08;;;;;;;16.63;10.77;;;2.30;76.80;;;;;;4406608;32;20152;-63
2021/01/15 08:49:35;;;;;;;16.10;9.93;;;2.40;77.20;;;;;;4405196;32;20336;-63
2021/01/15 08:52:02;;;;;;;14.53;10.23;;;2.50;77.60;;;;;;4408109;32;20211;-63
2021/01/15 08:54:35;;;;;;;16.07;10.80;;;2.60;78.50;;;;;;4403906;32;20548;-65
2021/01/15 08:57:04;;;;;;;17.73;11.83;;;2.70;77.90;;;;;;4408007;32;20170;-65
2021/01/15 08:59:33;;;;;;;17.43;10.50;;;2.70;77.50;;;;;;4405633;32;20159;-65
2021/01/15 09:02:12;;;;;;;13.53;9.83;;;2.70;77.60;;;;;;4405240;32;20232;-63
2021/01/15 09:04:53;;;;;;;18.13;11.47;;;2.80;77.60;;;;;;4406064;32;20296;-62
2021/01/15 09:07:24;;;;;;;15.87;10.70;;;2.80;76.70;;;;;;4402589;32;20201;-64
2021/01/15 09:09:52;;;;;;;14.67;11.03;;;2.80;78.00;;;;;;4402355;32;20171;-62
2021/01/15 09:12:21;;;;;;;17.93;11.93;;;2.90;77.00;;;;;;4402632;32;20673;-62
2021/01/15 09:15:03;;;;;;;17.77;10.93;;;2.80;76.40;;;;;;4404356;32;20215;-65
2021/01/15 09:17:36;;;;;;;15.80;10.83;;;2.80;76.70;;;;;;4409032;32;20565;-63
2021/01/15 09:20:05;;;;;;;18.47;12.07;;;2.80;77.60;;;;;;4406351;32;20210;-62
2021/01/15 09:22:31;;;;;;;16.73;10.40;;;2.80;75.80;;;;;;4407760;32;20285;-64
2021/01/15 09:25:16;;;;;;;15.90;11.43;;;2.80;76.90;;;;;;4406804;32;20164;-64
2021/01/15 09:28:10;;;;;;;17.43;12.20;;;2.80;77.20;;;;;;4409248;32;20177;-65
2021/01/15 09:30:38;;;;;;;14.27;10.27;;;2.80;75.40;;;;;;4408202;32;20243;-66
2021/01/15 09:33:10;;;;;;;16.77;11.53;;;2.80;76.20;;;;;;4397825;32;20212;-65
2021/01/15 09:35:38;;;;;;;20.93;11.70;;;2.80;76.10;;;;;;4408393;32;20171;-66
2021/01/15 09:38:04;;;;;;;16.97;11.73;;;2.90;76.40;;;;;;4407966;32;20167;-61
2021/01/15 09:40:32;;;;;;;15.93;11.37;;;2.70;75.80;;;;;;4408829;32;20160;-65
2021/01/15 09:43:01;;;;;;;17.70;11.80;;;2.60;76.80;;;;;;4406981;32;20218;-64
2021/01/15 09:45:28;;;;;;;21.87;12.67;;;2.70;77.50;;;;;;4407774;32;20222;-65
2021/01/15 09:47:59;;;;;;;16.73;11.57;;;2.60;77.00;;;;;;4405845;32;20178;-65
2021/01/15 09:50:55;;;;;;;19.37;11.73;;;2.60;78.00;;;;;;4410283;32;20212;-64
2021/01/15 09:53:21;;;;;;;16.20;10.93;;;2.60;78.30;;;;;;4407163;32;21346;-66
2021/01/15 09:55:50;;;;;;;18.73;11.50;;;2.80;77.90;;;;;;4408296;32;20151;-65
2021/01/15 09:58:20;;;;;;;17.03;11.70;;;2.90;77.60;;;;;;4410193;32;20178;-65
2021/01/15 10:00:56;;;;;;;16.13;11.27;;;2.90;77.90;;;;;;4407615;32;20212;-66
2021/01/15 10:03:22;;;;;;;18.40;12.17;;;2.90;78.50;;;;;;4407644;32;20221;-62
2021/01/15 10:05:50;;;;;;;16.47;10.90;;;3.00;77.40;;;;;;4409841;32;20182;-65
2021/01/15 10:08:29;;;;;;;16.60;11.20;;;3.00;78.10;;;;;;4406672;32;20231;-65
2021/01/15 10:10:56;;;;;;;17.07;11.73;;;3.00;77.80;;;;;;4404724;32;20214;-64
2021/01/15 10:13:28;;;;;;;17.43;11.80;;;3.10;77.90;;;;;;4409259;32;20239;-62
2021/01/15 10:16:05;;;;;;;19.70;11.60;;;3.10;77.70;;;;;;4407785;32;20245;-67
2021/01/15 10:18:33;;;;;;;15.47;10.30;;;3.10;77.50;;;;;;4407281;32;20617;-66
2021/01/15 10:21:07;;;;;;;17.43;11.60;;;3.10;77.20;;;;;;4407568;32;20223;-65
2021/01/15 10:23:37;;;;;;;18.63;12.17;;;3.20;77.80;;;;;;4406846;32;20172;-65
2021/01/15 10:26:09;;;;;;;18.80;10.90;;;3.20;77.70;;;;;;4406230;32;20164;-67
2021/01/15 10:28:35;;;;;;;20.60;11.47;;;3.10;77.10;;;;;;4405618;32;20176;-65
2021/01/15 10:31:04;;;;;;;19.83;12.33;;;3.20;77.30;;;;;;4405310;32;20171;-65
2021/01/15 10:33:31;;;;;;;19.83;12.20;;;3.10;77.30;;;;;;4407505;32;20151;-66
2021/01/15 10:35:57;;;;;;;31.50;14.03;;;3.10;77.00;;;;;;4407039;32;20168;-64
2021/01/15 10:38:30;;;;;;;24.70;13.10;;;3.20;77.40;;;;;;4409364;32;20252;-65
2021/01/15 10:40:59;;;;;;;19.63;12.43;;;3.30;77.80;;;;;;4411289;32;20215;-66
2021/01/15 10:43:25;;;;;;;19.87;12.47;;;3.30;77.50;;;;;;4409285;32;20190;-64
2021/01/15 10:45:54;;;;;;;17.83;12.27;;;3.30;77.00;;;;;;4410248;32;20257;-66
2021/01/15 10:48:21;;;;;;;20.07;12.87;;;3.30;77.00;;;;;;4409705;32;20305;-64
2021/01/15 10:50:47;;;;;;;17.87;12.33;;;3.30;77.10;;;;;;4409082;32;20600;-66
2021/01/15 10:53:21;;;;;;;18.27;11.87;;;3.40;77.30;;;;;;4411587;32;20628;-65
2021/01/15 10:55:51;;;;;;;19.40;12.07;;;3.40;76.60;;;;;;4412243;32;20197;-65
2021/01/15 10:58:30;;;;;;;17.23;11.67;;;3.40;76.60;;;;;;4412041;32;20156;-65
2021/01/15 11:00:56;;;;;;;21.20;10.90;;;3.30;76.50;;;;;;4406056;32;20218;-65
2021/01/15 11:03:25;;;;;;;18.43;11.17;;;3.40;77.00;;;;;;4409458;32;20212;-64
2021/01/15 11:05:54;;;;;;;19.60;12.30;;;3.50;76.90;;;;;;4411893;32;20159;-65
2021/01/15 11:08:21;;;;;;;19.03;10.40;;;3.40;76.20;;;;;;4407211;32;20176;-66
2021/01/15 11:10:47;;;;;;;17.50;11.70;;;3.50;76.40;;;;;;4405739;32;20600;-64
2021/01/15 11:19:50;;;;;;;15.57;10.40;;;3.30;75.00;;;;;;4397929;32;20192;-64
2021/01/15 11:22:17;;;;;;;16.00;10.57;;;3.40;74.90;;;;;;4407717;32;20190;-64
2021/01/15 11:24:44;;;;;;;18.33;11.60;;;3.50;75.30;;;;;;4400215;32;20735;-64
2021/01/15 11:27:12;;;;;;;16.60;10.90;;;3.60;74.80;;;;;;4407634;32;20168;-63
2021/01/15 11:29:38;;;;;;;22.43;11.30;;;3.60;74.60;;;;;;4408742;32;20246;-65
2021/01/15 11:32:05;;;;;;;16.90;11.27;;;3.70;74.70;;;;;;4411521;32;20202;-63
2021/01/15 11:34:31;;;;;;;21.47;12.83;;;3.60;74.50;;;;;;4409610;32;20189;-64
2021/01/15 11:36:58;;;;;;;16.47;10.80;;;3.50;73.70;;;;;;4407092;32;20153;-64
2021/01/15 11:39:25;;;;;;;17.17;11.20;;;3.50;74.60;;;;;;4411818;32;20238;-63
2021/01/15 11:41:53;;;;;;;15.70;10.53;;;3.50;73.50;;;;;;4408784;32;20163;-63
2021/01/15 11:44:20;;;;;;;15.27;10.10;;;3.60;74.10;;;;;;4407913;32;20173;-63
2021/01/15 11:46:46;;;;;;;17.10;10.50;;;3.40;73.90;;;;;;4406473;32;20264;-64
2021/01/15 11:49:14;;;;;;;16.07;10.90;;;3.60;73.90;;;;;;4408032;32;20290;-64
2021/01/15 11:51:40;;;;;;;14.73;11.03;;;3.70;73.60;;;;;;4406826;32;20531;-64
2021/01/15 11:54:12;;;;;;;14.13;10.67;;;3.70;73.70;;;;;;4406614;32;20604;-65
2021/01/15 11:56:40;;;;;;;15.60;10.93;;;3.80;73.80;;;;;;4402592;32;20160;-64
2021/01/15 11:59:07;;;;;;;17.87;11.50;;;3.80;73.90;;;;;;4408639;32;20578;-64
2021/01/15 12:01:33;;;;;;;14.67;10.00;;;3.80;73.80;;;;;;4405744;32;20186;-64
2021/01/15 12:03:59;;;;;;;15.73;10.30;;;3.80;73.50;;;;;;4406371;32;20300;-64
2021/01/15 12:06:26;;;;;;;18.20;11.90;;;3.80;73.90;;;;;;4408523;32;20195;-64
2021/01/15 12:08:52;;;;;;;18.77;11.10;;;3.90;73.20;;;;;;4406458;32;20160;-68
2021/01/15 12:11:21;;;;;;;15.17;10.83;;;3.90;73.10;;;;;;4408435;32;20227;-64
2021/01/15 12:13:48;;;;;;;17.23;11.13;;;3.90;73.10;;;;;;4207254;32;6412054;-66
2021/01/15 12:16:14;;;;;;;17.57;11.70;;;4.00;73.40;;;;;;4408266;32;20345;-65
2021/01/15 12:18:41;;;;;;;17.17;11.17;;;4.10;73.30;;;;;;4402832;32;20230;-64
2021/01/15 12:21:19;;;;;;;18.23;11.37;;;4.10;73.30;;;;;;4404678;32;20238;-64
2021/01/15 12:23:46;;;;;;;16.17;11.33;;;4.10;73.50;;;;;;4407846;32;20217;-64
2021/01/15 12:26:12;;;;;;;17.13;10.90;;;4.00;72.40;;;;;;4410649;32;20491;-64
2021/01/15 12:28:38;;;;;;;16.43;11.43;;;3.90;73.80;;;;;;4407598;32;20856;-64
2021/01/15 12:31:06;;;;;;;17.60;11.13;;;3.90;73.90;;;;;;4405905;32;20156;-64
2021/01/15 12:33:32;;;;;;;16.60;11.47;;;4.00;73.60;;;;;;4405694;32;20149;-63
2021/01/15 12:35:59;;;;;;;16.87;11.53;;;3.90;74.20;;;;;;4403965;32;20252;-66
2021/01/15 12:38:25;;;;;;;18.13;12.47;;;3.90;73.30;;;;;;4405818;32;20170;-67
2021/01/15 12:40:52;;;;;;;17.83;12.27;;;3.80;73.60;;;;;;4405585;32;20468;-65
2021/01/15 12:43:34;;;;;;;16.20;11.07;;;3.50;74.50;;;;;;4404011;32;20240;-65
2021/01/15 12:46:01;;;;;;;15.83;11.63;;;3.60;74.70;;;;;;4405624;32;20144;-64
2021/01/15 12:48:28;;;;;;;17.90;11.67;;;3.50;74.40;;;;;;4407035;32;20209;-63
2021/01/15 12:50:54;;;;;;;18.27;11.87;;;3.40;74.90;;;;;;4406697;32;20282;-65
2021/01/15 12:53:21;;;;;;;16.10;11.37;;;3.50;75.20;;;;;;4405012;32;20214;-68
2021/01/15 12:55:47;;;;;;;15.10;11.17;;;3.50;75.50;;;;;;4404911;32;20178;-65
2021/01/15 12:58:13;;;;;;;19.97;12.77;;;3.60;75.90;;;;;;4408141;32;20279;-64
2021/01/15 13:00:40;;;;;;;16.53;10.83;;;3.60;75.60;;;;;;4406720;32;20486;-64
2021/01/15 13:03:06;;;;;;;17.87;11.67;;;3.50;74.30;;;;;;4405370;32;20186;-65
2021/01/15 13:05:33;;;;;;;14.70;10.50;;;3.40;75.60;;;;;;4406998;32;20248;-64
2021/01/15 13:11:04;;;;;;;16.07;10.80;;;3.40;76.60;;;;;;4406409;32;20173;-66
2021/01/15 13:13:31;;;;;;;16.10;11.07;;;3.50;76.50;;;;;;4408836;32;20840;-65
2021/01/15 13:15:57;;;;;;;17.97;11.40;;;3.60;76.20;;;;;;4408718;32;20231;-65
2021/01/15 13:18:25;;;;;;;16.00;10.77;;;3.60;76.30;;;;;;4408848;32;20171;-63
2021/01/15 13:20:56;;;;;;;18.57;11.67;;;3.70;75.60;;;;;;4409051;32;20174;-66
2021/01/15 13:23:25;;;;;;;17.10;10.97;;;3.60;73.80;;;;;;4408182;32;20135;-64